sensor_id;sensor_type;location;lat;lon;timestamp;pressure;altitude;pressure_sealevel;temperature;humidity
7105;BME280;3594;42.152;24.714;2022-07-05T00:00:09;-24430.88;;;22.10;nan
7105;BME280;3594;42.152;24.714;2022-07-05T00:02:34;-24432.69;;;22.16;nan
7105;BME280;3594;42.152;24.714;2022-07-05T00:05:00;-24426.03;;;21.92;nan
7105;BME280;3594;42.152;24.714;2022-07-05T00:07:25;-24431.72;;;22.13;nan
7105;BME280;3594;42.152;24.714;2022-07-05T00:09:56;-24431.44;;;22.12;nan
7105;BME280;3594;42.152;24.714;2022-07-05T00:12:27;-24424.38;;;21.86;nan
7105;BME280;3594;42.152;24.714;2022-07-05T00:14:54;-24423.53;;;21.83;nan
7105;BME280;3594;42.152;24.714;2022-07-05T00:17:19;-24421.19;;;21.74;nan
7105;BME280;3594;42.152;24.714;2022-07-05T00:19:45;-24426.88;;;21.95;nan
7105;BME280;3594;42.152;24.714;2022-07-05T00:22:11;-24421.88;;;21.77;nan
7105;BME280;3594;42.152;24.714;2022-07-05T00:24:36;-24430.75;;;22.09;nan
7105;BME280;3594;42.152;24.714;2022-07-05T00:27:02;-24429.91;;;22.06;nan
7105;BME280;3594;42.152;24.714;2022-07-05T00:29:28;-24345.09;;;18.97;nan
7105;BME280;3594;42.152;24.714;2022-07-05T00:31:54;-24416.75;;;21.58;nan
7105;BME280;3594;42.152;24.714;2022-07-05T00:34:19;-24413.44;;;21.46;nan
7105;BME280;3594;42.152;24.714;2022-07-05T00:36:45;-24414.81;;;21.51;nan
7105;BME280;3594;42.152;24.714;2022-07-05T00:39:10;-24420.06;;;21.70;nan
7105;BME280;3594;42.152;24.714;2022-07-05T00:41:36;-24418.69;;;21.65;nan
7105;BME280;3594;42.152;24.714;2022-07-05T00:44:07;-24411.75;;;21.40;nan
7105;BME280;3594;42.152;24.714;2022-07-05T00:46:34;-24410.38;;;21.35;nan
7105;BME280;3594;42.152;24.714;2022-07-05T00:49:00;-24415.50;;;21.53;nan
7105;BME280;3594;42.152;24.714;2022-07-05T00:51:29;-24414.81;;;21.51;nan
7105;BME280;3594;42.152;24.714;2022-07-05T00:53:55;-24414.94;;;21.51;nan
7105;BME280;3594;42.152;24.714;2022-07-05T00:56:23;-24418.00;;;21.63;nan
7105;BME280;3594;42.152;24.714;2022-07-05T00:58:49;-24414.81;;;21.51;nan
7105;BME280;3594;42.152;24.714;2022-07-05T01:01:15;-24411.50;;;21.39;nan
7105;BME280;3594;42.152;24.714;2022-07-05T01:03:42;-24401.63;;;21.03;nan
7105;BME280;3594;42.152;24.714;2022-07-05T01:06:09;-24409.00;;;21.30;nan
7105;BME280;3594;42.152;24.714;2022-07-05T01:08:40;-24413.97;;;21.48;nan
7105;BME280;3594;42.152;24.714;2022-07-05T01:11:07;-24407.19;;;21.23;nan
7105;BME280;3594;42.152;24.714;2022-07-05T01:13:33;-24404.69;;;21.14;nan
7105;BME280;3594;42.152;24.714;2022-07-05T01:15:59;-24401.22;;;21.01;nan
7105;BME280;3594;42.152;24.714;2022-07-05T01:18:25;-24389.84;;;20.60;nan
7105;BME280;3594;42.152;24.714;2022-07-05T01:20:51;-24399.56;;;20.95;nan
7105;BME280;3594;42.152;24.714;2022-07-05T01:23:20;-24395.94;;;20.82;nan
7105;BME280;3594;42.152;24.714;2022-07-05T01:25:47;-24403.16;;;21.08;nan
7105;BME280;3594;42.152;24.714;2022-07-05T01:28:14;-24393.59;;;20.73;nan
7105;BME280;3594;42.152;24.714;2022-07-05T01:30:41;-24385.81;;;20.45;nan
7105;BME280;3594;42.152;24.714;2022-07-05T01:33:08;-24390.69;;;20.63;nan
7105;BME280;3594;42.152;24.714;2022-07-05T01:35:35;-24381.22;;;20.28;nan
7105;BME280;3594;42.152;24.714;2022-07-05T01:38:01;-24385.28;;;20.43;nan
7105;BME280;3594;42.152;24.714;2022-07-05T01:40:26;-24377.06;;;20.13;nan
7105;BME280;3594;42.152;24.714;2022-07-05T01:42:53;-24375.00;;;20.06;nan
7105;BME280;3594;42.152;24.714;2022-07-05T01:45:19;-24375.69;;;20.08;nan
7105;BME280;3594;42.152;24.714;2022-07-05T01:48:06;-24380.69;;;20.26;nan
7105;BME280;3594;42.152;24.714;2022-07-05T01:50:36;-24377.06;;;20.13;nan
7105;BME280;3594;42.152;24.714;2022-07-05T01:53:03;-24373.72;;;20.01;nan
7105;BME280;3594;42.152;24.714;2022-07-05T01:55:29;-24372.50;;;19.97;nan
7105;BME280;3594;42.152;24.714;2022-07-05T01:57:54;-24378.88;;;20.20;nan
7105;BME280;3594;42.152;24.714;2022-07-05T02:00:20;-24374.84;;;20.05;nan
7105;BME280;3594;42.152;24.714;2022-07-05T02:02:46;-24384.44;;;20.40;nan
7105;BME280;3594;42.152;24.714;2022-07-05T02:05:12;-24378.47;;;20.18;nan
7105;BME280;3594;42.152;24.714;2022-07-05T02:07:48;-24372.75;;;19.98;nan
7105;BME280;3594;42.152;24.714;2022-07-05T02:10:13;-24378.88;;;20.20;nan
7105;BME280;3594;42.152;24.714;2022-07-05T02:12:39;-24373.72;;;20.01;nan
7105;BME280;3594;42.152;24.714;2022-07-05T02:15:05;-24377.91;;;20.16;nan
7105;BME280;3594;42.152;24.714;2022-07-05T02:17:30;-24365.81;;;19.72;nan
7105;BME280;3594;42.152;24.714;2022-07-05T02:19:56;-24364.28;;;19.67;nan
7105;BME280;3594;42.152;24.714;2022-07-05T02:22:23;-24366.50;;;19.75;nan
7105;BME280;3594;42.152;24.714;2022-07-05T02:24:48;-24356.34;;;19.38;nan
7105;BME280;3594;42.152;24.714;2022-07-05T02:27:14;-24361.91;;;19.58;nan
7105;BME280;3594;42.152;24.714;2022-07-05T02:29:39;-24363.44;;;19.64;nan
7105;BME280;3594;42.152;24.714;2022-07-05T02:32:05;-24359.00;;;19.48;nan
7105;BME280;3594;42.152;24.714;2022-07-05T02:34:30;-24350.78;;;19.18;nan
7105;BME280;3594;42.152;24.714;2022-07-05T02:36:56;-24359.28;;;19.49;nan
7105;BME280;3594;42.152;24.714;2022-07-05T02:39:21;-24351.63;;;19.21;nan
7105;BME280;3594;42.152;24.714;2022-07-05T02:41:47;-24359.28;;;19.49;nan
7105;BME280;3594;42.152;24.714;2022-07-05T02:44:12;-24354.28;;;19.30;nan
7105;BME280;3594;42.152;24.714;2022-07-05T02:46:37;-24350.66;;;19.17;nan
7105;BME280;3594;42.152;24.714;2022-07-05T02:49:03;-24352.19;;;19.23;nan
7105;BME280;3594;42.152;24.714;2022-07-05T02:51:29;-24346.63;;;19.03;nan
7105;BME280;3594;42.152;24.714;2022-07-05T02:53:54;-24355.81;;;19.36;nan
7105;BME280;3594;42.152;24.714;2022-07-05T02:56:20;-24352.31;;;19.23;nan
7105;BME280;3594;42.152;24.714;2022-07-05T02:58:45;-24355.09;;;19.33;nan
7105;BME280;3594;42.152;24.714;2022-07-05T03:01:11;-24360.38;;;19.53;nan
7105;BME280;3594;42.152;24.714;2022-07-05T03:03:36;-24359.28;;;19.49;nan
7105;BME280;3594;42.152;24.714;2022-07-05T03:06:02;-24259.38;;;15.86;nan
7105;BME280;3594;42.152;24.714;2022-07-05T03:08:27;-24360.81;;;19.54;nan
7105;BME280;3594;42.152;24.714;2022-07-05T03:10:53;-24365.41;;;19.71;nan
7105;BME280;3594;42.152;24.714;2022-07-05T03:13:18;-24383.47;;;20.37;nan
7105;BME280;3594;42.152;24.714;2022-07-05T03:15:43;-24395.41;;;20.80;nan
7105;BME280;3594;42.152;24.714;2022-07-05T03:18:09;-24398.59;;;20.92;nan
7105;BME280;3594;42.152;24.714;2022-07-05T03:20:35;-24405.38;;;21.17;nan
7105;BME280;3594;42.152;24.714;2022-07-05T03:23:00;-24393.44;;;20.73;nan
7105;BME280;3594;42.152;24.714;2022-07-05T03:25:26;-24386.66;;;20.48;nan
7105;BME280;3594;42.152;24.714;2022-07-05T03:27:51;-24414.41;;;21.49;nan
7105;BME280;3594;42.152;24.714;2022-07-05T03:30:17;-24425.63;;;21.90;nan
7105;BME280;3594;42.152;24.714;2022-07-05T03:32:42;-24437.66;;;22.34;nan
7105;BME280;3594;42.152;24.714;2022-07-05T03:35:08;-24465.72;;;23.37;nan
7105;BME280;3594;42.152;24.714;2022-07-05T03:37:33;-24490.84;;;24.29;nan
7105;BME280;3594;42.152;24.714;2022-07-05T03:39:59;-24497.31;;;24.53;nan
7105;BME280;3594;42.152;24.714;2022-07-05T03:42:24;-24525.81;;;25.58;nan
7105;BME280;3594;42.152;24.714;2022-07-05T03:44:50;-24543.69;;;26.23;nan
7105;BME280;3594;42.152;24.714;2022-07-05T03:47:15;-24571.28;;;27.25;nan
7105;BME280;3594;42.152;24.714;2022-07-05T03:49:41;-24584.16;;;27.73;nan
7105;BME280;3594;42.152;24.714;2022-07-05T03:52:06;-24601.16;;;28.35;nan
7105;BME280;3594;42.152;24.714;2022-07-05T03:54:32;-24615.66;;;28.89;nan
7105;BME280;3594;42.152;24.714;2022-07-05T03:56:57;-24631.75;;;29.49;nan
7105;BME280;3594;42.152;24.714;2022-07-05T03:59:22;-24634.91;;;29.60;nan
7105;BME280;3594;42.152;24.714;2022-07-05T04:01:48;-24650.19;;;30.17;nan
7105;BME280;3594;42.152;24.714;2022-07-05T04:04:13;-24654.00;;;30.31;nan
7105;BME280;3594;42.152;24.714;2022-07-05T04:06:39;-24660.00;;;30.53;nan
7105;BME280;3594;42.152;24.714;2022-07-05T04:09:04;-24657.66;;;30.45;nan
7105;BME280;3594;42.152;24.714;2022-07-05T04:11:30;-24666.94;;;30.79;nan
7105;BME280;3594;42.152;24.714;2022-07-05T04:13:55;-24676.19;;;31.13;nan
7105;BME280;3594;42.152;24.714;2022-07-05T04:16:21;-24690.34;;;31.66;nan
7105;BME280;3594;42.152;24.714;2022-07-05T04:18:47;-24710.56;;;32.41;nan
7105;BME280;3594;42.152;24.714;2022-07-05T04:21:12;-24720.06;;;32.77;nan
7105;BME280;3594;42.152;24.714;2022-07-05T04:23:38;-24713.28;;;32.52;nan
7105;BME280;3594;42.152;24.714;2022-07-05T04:26:03;-24716.69;;;32.64;nan
7105;BME280;3594;42.152;24.714;2022-07-05T04:28:29;-24718.84;;;32.72;nan
7105;BME280;3594;42.152;24.714;2022-07-05T04:30:57;-24705.69;;;32.23;nan
7105;BME280;3594;42.152;24.714;2022-07-05T04:33:23;-24703.38;;;32.15;nan
7105;BME280;3594;42.152;24.714;2022-07-05T04:35:49;-24716.56;;;32.64;nan
7105;BME280;3594;42.152;24.714;2022-07-05T04:38:14;-24718.03;;;32.69;nan
7105;BME280;3594;42.152;24.714;2022-07-05T04:40:40;-24715.31;;;32.59;nan
7105;BME280;3594;42.152;24.714;2022-07-05T04:43:06;-24710.56;;;32.41;nan
7105;BME280;3594;42.152;24.714;2022-07-05T04:45:32;-24724.00;;;32.92;nan
7105;BME280;3594;42.152;24.714;2022-07-05T04:47:58;-24708.94;;;32.35;nan
7105;BME280;3594;42.152;24.714;2022-07-05T04:50:23;-24714.78;;;32.57;nan
7105;BME280;3594;42.152;24.714;2022-07-05T04:52:49;-24704.34;;;32.18;nan
7105;BME280;3594;42.152;24.714;2022-07-05T04:55:14;-24705.00;;;32.21;nan
7105;BME280;3594;42.152;24.714;2022-07-05T04:57:41;-24707.03;;;32.28;nan
7105;BME280;3594;42.152;24.714;2022-07-05T05:00:09;-24717.78;;;32.68;nan
7105;BME280;3594;42.152;24.714;2022-07-05T05:02:35;-24710.31;;;32.40;nan
7105;BME280;3594;42.152;24.714;2022-07-05T05:05:00;-24694.97;;;31.83;nan
7105;BME280;3594;42.152;24.714;2022-07-05T05:07:26;-24678.50;;;31.22;nan
7105;BME280;3594;42.152;24.714;2022-07-05T05:09:52;-24662.03;;;30.61;nan
7105;BME280;3594;42.152;24.714;2022-07-05T05:12:18;-24655.91;;;30.38;nan
7105;BME280;3594;42.152;24.714;2022-07-05T05:14:43;-24648.94;;;30.12;nan
7105;BME280;3594;42.152;24.714;2022-07-05T05:17:09;-24631.75;;;29.49;nan
7105;BME280;3594;42.152;24.714;2022-07-05T05:19:34;-24637.09;;;29.68;nan
7105;BME280;3594;42.152;24.714;2022-07-05T05:22:00;-24640.34;;;29.80;nan
7105;BME280;3594;42.152;24.714;2022-07-05T05:24:25;-24639.41;;;29.77;nan
7105;BME280;3594;42.152;24.714;2022-07-05T05:26:51;-24642.13;;;29.87;nan
7105;BME280;3594;42.152;24.714;2022-07-05T05:29:17;-24643.78;;;29.93;nan
7105;BME280;3594;42.152;24.714;2022-07-05T05:31:43;-24649.38;;;30.14;nan
7105;BME280;3594;42.152;24.714;2022-07-05T05:34:08;-24655.34;;;30.36;nan
7105;BME280;3594;42.152;24.714;2022-07-05T05:36:34;-24627.53;;;29.33;nan
7105;BME280;3594;42.152;24.714;2022-07-05T05:38:59;-24629.31;;;29.39;nan
7105;BME280;3594;42.152;24.714;2022-07-05T05:41:25;-24638.19;;;29.72;nan
7105;BME280;3594;42.152;24.714;2022-07-05T05:43:50;-24623.56;;;29.18;nan
7105;BME280;3594;42.152;24.714;2022-07-05T05:46:16;-24611.00;;;28.72;nan
7105;BME280;3594;42.152;24.714;2022-07-05T05:48:41;-24620.00;;;29.05;nan
7105;BME280;3594;42.152;24.714;2022-07-05T05:51:07;-24614.28;;;28.84;nan
7105;BME280;3594;42.152;24.714;2022-07-05T05:53:32;-24587.59;;;27.85;nan
7105;BME280;3594;42.152;24.714;2022-07-05T05:55:58;-24591.69;;;28.00;nan
7105;BME280;3594;42.152;24.714;2022-07-05T05:58:24;-24586.50;;;27.81;nan
7105;BME280;3594;42.152;24.714;2022-07-05T06:00:50;-24587.03;;;27.83;nan
7105;BME280;3594;42.152;24.714;2022-07-05T06:03:20;-24571.41;;;27.25;nan
7105;BME280;3594;42.152;24.714;2022-07-05T06:05:46;-24564.84;;;27.01;nan
7105;BME280;3594;42.152;24.714;2022-07-05T06:08:12;-24571.97;;;27.28;nan
7105;BME280;3594;42.152;24.714;2022-07-05T06:10:38;-24563.59;;;26.97;nan
7105;BME280;3594;42.152;24.714;2022-07-05T06:13:06;-24564.97;;;27.02;nan
7105;BME280;3594;42.152;24.714;2022-07-05T06:15:32;-24553.19;;;26.58;nan
7105;BME280;3594;42.152;24.714;2022-07-05T06:17:57;-24569.09;;;27.17;nan
7105;BME280;3594;42.152;24.714;2022-07-05T06:20:25;-24570.06;;;27.20;nan
7105;BME280;3594;42.152;24.714;2022-07-05T06:22:52;-24561.81;;;26.90;nan
7105;BME280;3594;42.152;24.714;2022-07-05T06:25:18;-24576.06;;;27.43;nan
7105;BME280;3594;42.152;24.714;2022-07-05T06:27:52;-24571.56;;;27.26;nan
7105;BME280;3594;42.152;24.714;2022-07-05T06:30:18;-24572.78;;;27.31;nan
7105;BME280;3594;42.152;24.714;2022-07-05T06:32:46;-24569.22;;;27.17;nan
7105;BME280;3594;42.152;24.714;2022-07-05T06:35:13;-24579.66;;;27.56;nan
7105;BME280;3594;42.152;24.714;2022-07-05T06:37:58;-24576.63;;;27.45;nan
7105;BME280;3594;42.152;24.714;2022-07-05T06:40:31;-24586.22;;;27.80;nan
7105;BME280;3594;42.152;24.714;2022-07-05T06:42:58;-24579.66;;;27.56;nan
7105;BME280;3594;42.152;24.714;2022-07-05T06:45:25;-24589.09;;;27.91;nan
7105;BME280;3594;42.152;24.714;2022-07-05T06:47:56;-24585.69;;;27.78;nan
7105;BME280;3594;42.152;24.714;2022-07-05T06:50:21;-24590.06;;;27.94;nan
7105;BME280;3594;42.152;24.714;2022-07-05T06:52:46;-24591.16;;;27.98;nan
7105;BME280;3594;42.152;24.714;2022-07-05T06:55:12;-24594.84;;;28.12;nan
7105;BME280;3594;42.152;24.714;2022-07-05T06:57:37;-24602.78;;;28.41;nan
7105;BME280;3594;42.152;24.714;2022-07-05T07:00:04;-24604.56;;;28.48;nan
7105;BME280;3594;42.152;24.714;2022-07-05T07:02:30;-24603.06;;;28.42;nan
7105;BME280;3594;42.152;24.714;2022-07-05T07:04:55;-24604.16;;;28.46;nan
7105;BME280;3594;42.152;24.714;2022-07-05T07:10:05;-24599.66;;;28.30;nan
7105;BME280;3594;42.152;24.714;2022-07-05T07:12:30;-24605.38;;;28.51;nan
7105;BME280;3594;42.152;24.714;2022-07-05T07:14:56;-24611.81;;;28.75;nan
7105;BME280;3594;42.152;24.714;2022-07-05T07:17:22;-24613.72;;;28.82;nan
7105;BME280;3594;42.152;24.714;2022-07-05T07:19:48;-24618.50;;;28.99;nan
7105;BME280;3594;42.152;24.714;2022-07-05T07:22:14;-24619.59;;;29.04;nan
7105;BME280;3594;42.152;24.714;2022-07-05T07:24:39;-24617.81;;;28.97;nan
7105;BME280;3594;42.152;24.714;2022-07-05T07:27:05;-24606.75;;;28.56;nan
7105;BME280;3594;42.152;24.714;2022-07-05T07:29:34;-24606.06;;;28.53;nan
7105;BME280;3594;42.152;24.714;2022-07-05T07:32:00;-24596.91;;;28.20;nan
7105;BME280;3594;42.152;24.714;2022-07-05T07:34:27;-24602.66;;;28.41;nan
7105;BME280;3594;42.152;24.714;2022-07-05T07:36:53;-24573.34;;;27.33;nan
7105;BME280;3594;42.152;24.714;2022-07-05T07:39:19;-24620.28;;;29.06;nan
7105;BME280;3594;42.152;24.714;2022-07-05T07:41:45;-24616.88;;;28.93;nan
7105;BME280;3594;42.152;24.714;2022-07-05T07:44:11;-24622.06;;;29.13;nan
7105;BME280;3594;42.152;24.714;2022-07-05T07:46:36;-24605.25;;;28.50;nan
7105;BME280;3594;42.152;24.714;2022-07-05T07:49:04;-24594.16;;;28.09;nan
7105;BME280;3594;42.152;24.714;2022-07-05T07:51:30;-24584.84;;;27.75;nan
7105;BME280;3594;42.152;24.714;2022-07-05T07:53:56;-24580.19;;;27.58;nan
7105;BME280;3594;42.152;24.714;2022-07-05T07:56:21;-24585.69;;;27.78;nan
7105;BME280;3594;42.152;24.714;2022-07-05T07:58:47;-24599.78;;;28.30;nan
7105;BME280;3594;42.152;24.714;2022-07-05T08:01:13;-24610.88;;;28.71;nan
7105;BME280;3594;42.152;24.714;2022-07-05T08:03:40;-24604.44;;;28.47;nan
7105;BME280;3594;42.152;24.714;2022-07-05T08:06:06;-24618.66;;;29.00;nan
7105;BME280;3594;42.152;24.714;2022-07-05T08:08:34;-24603.59;;;28.44;nan
7105;BME280;3594;42.152;24.714;2022-07-05T08:11:00;-24614.81;;;28.86;nan
7105;BME280;3594;42.152;24.714;2022-07-05T08:13:25;-24606.63;;;28.55;nan
7105;BME280;3594;42.152;24.714;2022-07-05T08:15:51;-24598.81;;;28.27;nan
7105;BME280;3594;42.152;24.714;2022-07-05T08:18:17;-24589.50;;;27.92;nan
7105;BME280;3594;42.152;24.714;2022-07-05T08:21:01;-24605.53;;;28.51;nan
7105;BME280;3594;42.152;24.714;2022-07-05T08:23:45;-24609.06;;;28.65;nan
7105;BME280;3594;42.152;24.714;2022-07-05T08:26:10;-24603.88;;;28.45;nan
7105;BME280;3594;42.152;24.714;2022-07-05T08:28:37;-24619.75;;;29.04;nan
7105;BME280;3594;42.152;24.714;2022-07-05T08:31:02;-24633.81;;;29.56;nan
7105;BME280;3594;42.152;24.714;2022-07-05T08:33:28;-24633.13;;;29.54;nan
7105;BME280;3594;42.152;24.714;2022-07-05T08:35:54;-24641.03;;;29.83;nan
7105;BME280;3594;42.152;24.714;2022-07-05T08:38:19;-24639.53;;;29.77;nan
7105;BME280;3594;42.152;24.714;2022-07-05T08:40:47;-24634.09;;;29.57;nan
7105;BME280;3594;42.152;24.714;2022-07-05T08:43:15;-24639.53;;;29.77;nan
7105;BME280;3594;42.152;24.714;2022-07-05T08:45:43;-24645.94;;;30.01;nan
7105;BME280;3594;42.152;24.714;2022-07-05T08:48:09;-24639.28;;;29.76;nan
7105;BME280;3594;42.152;24.714;2022-07-05T08:50:37;-24642.25;;;29.88;nan
7105;BME280;3594;42.152;24.714;2022-07-05T08:53:03;-24655.09;;;30.35;nan
7105;BME280;3594;42.152;24.714;2022-07-05T08:55:30;-24659.03;;;30.50;nan
7105;BME280;3594;42.152;24.714;2022-07-05T08:57:56;-24653.59;;;30.29;nan
7105;BME280;3594;42.152;24.714;2022-07-05T09:00:22;-24657.81;;;30.45;nan
7105;BME280;3594;42.152;24.714;2022-07-05T09:02:48;-24671.03;;;30.94;nan
7105;BME280;3594;42.152;24.714;2022-07-05T09:05:18;-24664.22;;;30.69;nan
7105;BME280;3594;42.152;24.714;2022-07-05T09:07:55;-24661.34;;;30.58;nan
7105;BME280;3594;42.152;24.714;2022-07-05T09:10:25;-24672.66;;;31.00;nan
7105;BME280;3594;42.152;24.714;2022-07-05T09:12:51;-24678.66;;;31.23;nan
7105;BME280;3594;42.152;24.714;2022-07-05T09:15:16;-24685.16;;;31.47;nan
7105;BME280;3594;42.152;24.714;2022-07-05T09:17:43;-24684.34;;;31.44;nan
7105;BME280;3594;42.152;24.714;2022-07-05T09:20:11;-24674.56;;;31.07;nan
7105;BME280;3594;42.152;24.714;2022-07-05T09:22:54;-24686.13;;;31.50;nan
7105;BME280;3594;42.152;24.714;2022-07-05T09:30:35;-24692.66;;;31.75;nan
7105;BME280;3594;42.152;24.714;2022-07-05T09:33:14;-24692.38;;;31.74;nan
7105;BME280;3594;42.152;24.714;2022-07-05T09:35:51;-24690.75;;;31.68;nan
7105;BME280;3594;42.152;24.714;2022-07-05T09:38:21;-24693.06;;;31.76;nan
7105;BME280;3594;42.152;24.714;2022-07-05T09:40:53;-24695.38;;;31.85;nan
7105;BME280;3594;42.152;24.714;2022-07-05T09:43:21;-24692.94;;;31.76;nan
7105;BME280;3594;42.152;24.714;2022-07-05T09:45:59;-24706.66;;;32.27;nan
7105;BME280;3594;42.152;24.714;2022-07-05T09:48:27;-24698.22;;;31.95;nan
7105;BME280;3594;42.152;24.714;2022-07-05T09:51:04;-24695.09;;;31.84;nan
7105;BME280;3594;42.152;24.714;2022-07-05T09:53:50;-24696.03;;;31.87;nan
7105;BME280;3594;42.152;24.714;2022-07-05T09:56:16;-24702.16;;;32.10;nan
7105;BME280;3594;42.152;24.714;2022-07-05T09:58:43;-24698.50;;;31.96;nan
7105;BME280;3594;42.152;24.714;2022-07-05T10:01:31;-24699.72;;;32.01;nan
7105;BME280;3594;42.152;24.714;2022-07-05T10:04:20;-24697.28;;;31.92;nan
7105;BME280;3594;42.152;24.714;2022-07-05T10:06:46;-24554.69;;;26.64;nan
7105;BME280;3594;42.152;24.714;2022-07-05T10:09:11;-24691.03;;;31.69;nan
7105;BME280;3594;42.152;24.714;2022-07-05T10:11:44;-24678.25;;;31.21;nan
7105;BME280;3594;42.152;24.714;2022-07-05T10:14:18;-24679.19;;;31.25;nan
7105;BME280;3594;42.152;24.714;2022-07-05T10:16:46;-24692.78;;;31.75;nan
7105;BME280;3594;42.152;24.714;2022-07-05T10:19:16;-24697.81;;;31.94;nan
7105;BME280;3594;42.152;24.714;2022-07-05T10:21:45;-24705.56;;;32.23;nan
7105;BME280;3594;42.152;24.714;2022-07-05T10:24:11;-24704.59;;;32.19;nan
7105;BME280;3594;42.152;24.714;2022-07-05T10:26:37;-24699.16;;;31.99;nan
7105;BME280;3594;42.152;24.714;2022-07-05T10:29:04;-24698.75;;;31.97;nan
7105;BME280;3594;42.152;24.714;2022-07-05T10:31:30;-24706.78;;;32.27;nan
7105;BME280;3594;42.152;24.714;2022-07-05T10:33:56;-24693.59;;;31.78;nan
7105;BME280;3594;42.152;24.714;2022-07-05T10:36:32;-24699.56;;;32.00;nan
7105;BME280;3594;42.152;24.714;2022-07-05T10:38:59;-24710.72;;;32.42;nan
7105;BME280;3594;42.152;24.714;2022-07-05T10:41:25;-24708.69;;;32.34;nan
7105;BME280;3594;42.152;24.714;2022-07-05T10:43:55;-24698.63;;;31.97;nan
7105;BME280;3594;42.152;24.714;2022-07-05T10:46:41;-24706.66;;;32.27;nan
7105;BME280;3594;42.152;24.714;2022-07-05T10:49:16;-24707.47;;;32.30;nan
7105;BME280;3594;42.152;24.714;2022-07-05T10:51:43;-24700.66;;;32.05;nan
7105;BME280;3594;42.152;24.714;2022-07-05T10:54:09;-24635.31;;;29.62;nan
7105;BME280;3594;42.152;24.714;2022-07-05T10:56:34;-24708.94;;;32.35;nan
7105;BME280;3594;42.152;24.714;2022-07-05T10:59:08;-24711.81;;;32.46;nan
7105;BME280;3594;42.152;24.714;2022-07-05T11:01:36;-24709.63;;;32.38;nan
7105;BME280;3594;42.152;24.714;2022-07-05T11:06:30;-24719.94;;;32.76;nan
7105;BME280;3594;42.152;24.714;2022-07-05T11:11:34;-24727.41;;;33.04;nan
7105;BME280;3594;42.152;24.714;2022-07-05T11:14:02;-24728.75;;;33.09;nan
7105;BME280;3594;42.152;24.714;2022-07-05T11:16:31;-24719.53;;;32.75;nan
7105;BME280;3594;42.152;24.714;2022-07-05T11:21:33;-24709.91;;;32.39;nan
7105;BME280;3594;42.152;24.714;2022-07-05T11:24:18;-24723.47;;;32.90;nan
7105;BME280;3594;42.152;24.714;2022-07-05T11:26:44;-24731.59;;;33.20;nan
7105;BME280;3594;42.152;24.714;2022-07-05T11:29:45;-24723.88;;;32.91;nan
7105;BME280;3594;42.152;24.714;2022-07-05T11:32:11;-24721.97;;;32.84;nan
7105;BME280;3594;42.152;24.714;2022-07-05T11:34:39;-24719.81;;;32.76;nan
7105;BME280;3594;42.152;24.714;2022-07-05T11:39:43;-24722.94;;;32.88;nan
7105;BME280;3594;42.152;24.714;2022-07-05T11:42:09;-24716.56;;;32.64;nan
7105;BME280;3594;42.152;24.714;2022-07-05T11:44:36;-24713.16;;;32.51;nan
7105;BME280;3594;42.152;24.714;2022-07-05T11:47:02;-24711.66;;;32.46;nan
7105;BME280;3594;42.152;24.714;2022-07-05T11:49:28;-24708.41;;;32.33;nan
7105;BME280;3594;42.152;24.714;2022-07-05T11:52:01;-24701.06;;;32.06;nan
7105;BME280;3594;42.152;24.714;2022-07-05T11:54:32;-24705.69;;;32.23;nan
7105;BME280;3594;42.152;24.714;2022-07-05T11:57:01;-24701.22;;;32.07;nan
7105;BME280;3594;42.152;24.714;2022-07-05T11:59:27;-24707.19;;;32.29;nan
7105;BME280;3594;42.152;24.714;2022-07-05T12:01:54;-24700.41;;;32.04;nan
7105;BME280;3594;42.152;24.714;2022-07-05T12:04:30;-24711.38;;;32.44;nan
7105;BME280;3594;42.152;24.714;2022-07-05T12:06:57;-24720.63;;;32.79;nan
7105;BME280;3594;42.152;24.714;2022-07-05T12:09:24;-24717.91;;;32.69;nan
7105;BME280;3594;42.152;24.714;2022-07-05T12:11:54;-24715.59;;;32.60;nan
7105;BME280;3594;42.152;24.714;2022-07-05T12:14:51;-24715.47;;;32.60;nan
7105;BME280;3594;42.152;24.714;2022-07-05T12:17:18;-24708.00;;;32.32;nan
7105;BME280;3594;42.152;24.714;2022-07-05T12:19:47;-24719.66;;;32.75;nan
7105;BME280;3594;42.152;24.714;2022-07-05T12:22:12;-24732.13;;;33.22;nan
7105;BME280;3594;42.152;24.714;2022-07-05T12:24:38;-24728.88;;;33.10;nan
7105;BME280;3594;42.152;24.714;2022-07-05T12:27:04;-24718.31;;;32.70;nan
7105;BME280;3594;42.152;24.714;2022-07-05T12:29:30;-24715.88;;;32.61;nan
7105;BME280;3594;42.152;24.714;2022-07-05T12:34:26;-24731.47;;;33.19;nan
7105;BME280;3594;42.152;24.714;2022-07-05T12:36:51;-24722.78;;;32.87;nan
7105;BME280;3594;42.152;24.714;2022-07-05T12:39:17;-24721.97;;;32.84;nan
7105;BME280;3594;42.152;24.714;2022-07-05T12:41:43;-24732.94;;;33.25;nan
7105;BME280;3594;42.152;24.714;2022-07-05T12:44:08;-24733.91;;;33.28;nan
7105;BME280;3594;42.152;24.714;2022-07-05T12:46:38;-24748.53;;;33.83;nan
7105;BME280;3594;42.152;24.714;2022-07-05T12:49:04;-24753.53;;;34.02;nan
7105;BME280;3594;42.152;24.714;2022-07-05T12:51:32;-24743.38;;;33.64;nan
7105;BME280;3594;42.152;24.714;2022-07-05T12:53:59;-24723.88;;;32.91;nan
7105;BME280;3594;42.152;24.714;2022-07-05T12:56:50;-24722.66;;;32.86;nan
7105;BME280;3594;42.152;24.714;2022-07-05T12:59:35;-24720.06;;;32.77;nan
7105;BME280;3594;42.152;24.714;2022-07-05T13:02:01;-24713.56;;;32.53;nan
7105;BME280;3594;42.152;24.714;2022-07-05T13:04:27;-24722.78;;;32.87;nan
7105;BME280;3594;42.152;24.714;2022-07-05T13:06:57;-24604.84;;;28.49;nan
7105;BME280;3594;42.152;24.714;2022-07-05T13:09:30;-24713.03;;;32.51;nan
7105;BME280;3594;42.152;24.714;2022-07-05T13:14:35;-24703.38;;;32.15;nan
7105;BME280;3594;42.152;24.714;2022-07-05T13:17:01;-24709.50;;;32.37;nan
7105;BME280;3594;42.152;24.714;2022-07-05T13:19:26;-24706.50;;;32.26;nan
7105;BME280;3594;42.152;24.714;2022-07-05T13:21:52;-24712.34;;;32.48;nan
7105;BME280;3594;42.152;24.714;2022-07-05T13:24:17;-24719.81;;;32.76;nan
7105;BME280;3594;42.152;24.714;2022-07-05T13:26:43;-24713.69;;;32.53;nan
7105;BME280;3594;42.152;24.714;2022-07-05T13:29:09;-24714.66;;;32.57;nan
7105;BME280;3594;42.152;24.714;2022-07-05T13:31:34;-24723.59;;;32.90;nan
7105;BME280;3594;42.152;24.714;2022-07-05T13:34:00;-24735.53;;;33.35;nan
7105;BME280;3594;42.152;24.714;2022-07-05T13:36:26;-24740.53;;;33.53;nan
7105;BME280;3594;42.152;24.714;2022-07-05T13:38:52;-24741.06;;;33.55;nan
7105;BME280;3594;42.152;24.714;2022-07-05T13:41:18;-24737.00;;;33.40;nan
7105;BME280;3594;42.152;24.714;2022-07-05T13:43:43;-24735.53;;;33.35;nan
7105;BME280;3594;42.152;24.714;2022-07-05T13:46:10;-24745.53;;;33.72;nan